createdAt,value
2022-09-03T00:00:08.934Z,14.18
2022-09-03T00:02:41.411Z,14.14
2022-09-03T00:05:14.236Z,14.09
2022-09-03T00:07:47.816Z,14.03
2022-09-03T00:10:21.196Z,14.00
2022-09-03T00:12:52.334Z,13.98
2022-09-03T00:15:21.930Z,13.94
2022-09-03T00:17:54.709Z,13.91
2022-09-03T00:20:28.862Z,13.88
2022-09-03T00:22:57.944Z,13.84
2022-09-03T00:25:28.993Z,13.79
2022-09-03T00:27:58.643Z,13.77
2022-09-03T00:30:25.931Z,13.72
2022-09-03T00:32:58.830Z,13.69
2022-09-03T00:35:28.975Z,13.65
2022-09-03T00:37:55.876Z,13.61
2022-09-03T00:40:40.436Z,13.57
2022-09-03T00:43:22.442Z,13.54
2022-09-03T00:46:00.224Z,13.49
2022-09-03T00:48:32.874Z,13.46
2022-09-03T00:51:17.551Z,13.42
2022-09-03T00:53:52.177Z,13.39
2022-09-03T00:56:26.783Z,13.36
2022-09-03T00:59:04.265Z,13.34
2022-09-03T01:01:39.988Z,13.30
2022-09-03T01:04:25.262Z,13.26
2022-09-03T01:07:02.315Z,13.23
2022-09-03T01:09:42.096Z,13.20
2022-09-03T01:12:17.581Z,13.16
2022-09-03T01:14:58.127Z,13.14
2022-09-03T01:17:35.599Z,13.12
2022-09-03T01:20:22.032Z,13.12
2022-09-03T01:23:21.708Z,13.09
2022-09-03T01:25:54.574Z,13.06
2022-09-03T01:28:41.366Z,13.04
2022-09-03T01:31:18.910Z,13.02
2022-09-03T01:33:52.909Z,13.00
2022-09-03T01:36:27.714Z,12.98
2022-09-03T01:38:59.669Z,12.94
2022-09-03T01:41:40.255Z,12.93
2022-09-03T01:44:19.485Z,12.90
2022-09-03T01:46:49.665Z,12.88
2022-09-03T01:49:24.047Z,12.86
2022-09-03T01:51:59.187Z,12.84
2022-09-03T01:54:49.149Z,12.83
2022-09-03T01:57:35.921Z,12.81
2022-09-03T02:00:08.181Z,12.77
2022-09-03T02:02:34.905Z,12.74
2022-09-03T02:05:05.307Z,12.72
2022-09-03T02:07:36.548Z,12.71
2022-09-03T02:10:06.988Z,12.68
2022-09-03T02:12:36.572Z,12.68
2022-09-03T02:15:10.461Z,12.66
2022-09-03T02:17:37.445Z,12.64
2022-09-03T02:20:08.604Z,12.61
2022-09-03T02:22:35.536Z,12.58
2022-09-03T02:25:02.329Z,12.57
2022-09-03T02:27:29.042Z,12.56
2022-09-03T02:29:57.086Z,12.56
2022-09-03T02:32:25.209Z,12.54
2022-09-03T02:34:51.915Z,12.53
2022-09-03T02:37:20.801Z,12.51
2022-09-03T02:39:48.526Z,12.51
2022-09-03T02:42:15.495Z,12.52
2022-09-03T02:44:46.744Z,12.52
2022-09-03T02:47:13.441Z,12.53
2022-09-03T02:49:41.514Z,12.55
2022-09-03T02:52:10.129Z,12.56
2022-09-03T02:54:37.358Z,12.58
2022-09-03T02:57:04.438Z,12.60
2022-09-03T02:59:31.094Z,12.60
2022-09-03T03:01:58.718Z,12.59
2022-09-03T03:04:28.374Z,12.58
2022-09-03T03:06:56.771Z,12.59
2022-09-03T03:09:23.478Z,12.58
2022-09-03T03:11:50.383Z,12.57
2022-09-03T03:14:17.559Z,12.54
2022-09-03T03:16:45.166Z,12.53
2022-09-03T03:19:12.093Z,12.51
2022-09-03T03:21:38.953Z,12.49
2022-09-03T03:24:07.894Z,12.50
2022-09-03T03:26:35.062Z,12.49
2022-09-03T03:29:02.648Z,12.49
2022-09-03T03:31:29.352Z,12.48
2022-09-03T03:33:58.111Z,12.47
2022-09-03T03:36:27.151Z,12.44
2022-09-03T03:38:54.529Z,12.43
2022-09-03T03:41:23.853Z,12.42
2022-09-03T03:43:53.124Z,12.40
2022-09-03T03:46:19.872Z,12.41
2022-09-03T03:48:48.325Z,12.40
2022-09-03T03:51:15.144Z,12.39
2022-09-03T03:53:42.117Z,12.37
2022-09-03T03:56:11.850Z,12.37
2022-09-03T03:58:40.508Z,12.34
2022-09-03T04:01:08.821Z,12.34
2022-09-03T04:03:36.353Z,12.33
2022-09-03T04:06:03.852Z,12.32
2022-09-03T04:08:31.021Z,12.32
2022-09-03T04:11:00.510Z,12.33
2022-09-03T04:13:29.168Z,12.32
2022-09-03T04:16:02.113Z,12.32
2022-09-03T04:18:29.837Z,12.32
2022-09-03T04:21:00.168Z,12.30
2022-09-03T04:23:28.055Z,12.30
2022-09-03T04:25:54.653Z,12.30
2022-09-03T04:28:21.294Z,12.30
2022-09-03T04:30:47.943Z,12.30
2022-09-03T04:33:17.754Z,12.32
2022-09-03T04:35:44.378Z,12.33
2022-09-03T04:38:11.287Z,12.35
2022-09-03T04:40:37.959Z,12.38
2022-09-03T04:43:04.743Z,12.40
2022-09-03T04:45:31.419Z,12.44
2022-09-03T04:47:59.760Z,12.48
2022-09-03T04:50:29.364Z,12.49
2022-09-03T04:52:59.632Z,12.52
2022-09-03T04:55:26.421Z,12.54
2022-09-03T04:57:53.106Z,12.57
2022-09-03T05:00:19.993Z,12.58
2022-09-03T05:02:46.619Z,12.59
2022-09-03T05:05:13.448Z,12.60
2022-09-03T05:07:41.480Z,12.61
2022-09-03T05:10:10.063Z,12.63
2022-09-03T05:12:36.829Z,12.64
2022-09-03T05:15:03.915Z,12.66
2022-09-03T05:17:30.666Z,12.70
2022-09-03T05:19:57.320Z,12.74
2022-09-03T05:22:23.971Z,12.78
2022-09-03T05:24:52.159Z,12.84
2022-09-03T05:27:18.840Z,12.89
2022-09-03T05:29:45.870Z,12.95
2022-09-03T05:32:12.849Z,13.01
2022-09-03T05:34:39.767Z,13.08
2022-09-03T05:37:06.408Z,13.17
2022-09-03T05:39:33.106Z,13.25
2022-09-03T05:42:01.161Z,13.34
2022-09-03T05:44:27.817Z,13.45
2022-09-03T05:46:54.527Z,13.54
2022-09-03T05:49:21.298Z,13.66
2022-09-03T05:51:47.973Z,13.77
2022-09-03T05:54:16.427Z,13.87
2022-09-03T05:56:43.133Z,14.00
2022-09-03T05:59:11.268Z,14.12
2022-09-03T06:01:39.434Z,14.22
2022-09-03T06:04:07.994Z,14.33
2022-09-03T06:06:36.805Z,14.44
2022-09-03T06:09:05.403Z,14.54
2022-09-03T06:11:34.051Z,14.63
2022-09-03T06:14:02.514Z,14.69
2022-09-03T06:16:32.110Z,14.75
2022-09-03T06:18:59.586Z,14.81
2022-09-03T06:21:26.649Z,14.84
2022-09-03T06:23:55.285Z,14.88
2022-09-03T06:26:22.200Z,14.93
2022-09-03T06:28:49.284Z,15.00
2022-09-03T06:31:18.198Z,15.07
2022-09-03T06:33:47.030Z,15.14
2022-09-03T06:36:15.709Z,15.19
2022-09-03T06:38:43.656Z,15.23
2022-09-03T06:41:12.066Z,15.29
2022-09-03T06:43:40.680Z,15.38
2022-09-03T06:46:10.623Z,15.45
2022-09-03T06:48:38.312Z,15.48
2022-09-03T06:51:08.496Z,15.55
2022-09-03T06:53:37.032Z,15.60
2022-09-03T06:56:07.529Z,15.63
2022-09-03T06:58:36.181Z,15.69
2022-09-03T07:01:05.939Z,15.77
2022-09-03T07:03:33.100Z,15.86
2022-09-03T07:06:03.307Z,15.91
2022-09-03T07:08:32.357Z,15.98
2022-09-03T07:10:59.237Z,16.04
2022-09-03T07:13:26.016Z,16.10
2022-09-03T07:15:59.714Z,16.13
2022-09-03T07:18:26.403Z,16.19
2022-09-03T07:20:57.432Z,16.23
2022-09-03T07:23:24.013Z,16.26
2022-09-03T07:25:54.716Z,16.31
2022-09-03T07:28:21.360Z,16.39
2022-09-03T07:30:48.017Z,16.45
2022-09-03T07:33:14.622Z,16.50
2022-09-03T07:35:41.252Z,16.56
2022-09-03T07:38:07.835Z,16.64
2022-09-03T07:40:34.474Z,16.72
2022-09-03T07:43:02.742Z,16.83
2022-09-03T07:45:29.388Z,16.92
2022-09-03T07:47:56.117Z,17.03
2022-09-03T07:50:22.794Z,17.11
2022-09-03T07:52:49.438Z,17.19
2022-09-03T07:55:16.087Z,17.30
2022-09-03T07:57:42.852Z,17.40
2022-09-03T08:00:12.613Z,17.49
2022-09-03T08:02:41.986Z,17.56
2022-09-03T08:05:12.295Z,17.59
2022-09-03T08:07:38.950Z,17.69
2022-09-03T08:10:09.061Z,17.74
2022-09-03T08:12:35.724Z,17.82
2022-09-03T08:15:02.367Z,17.91
2022-09-03T08:17:30.528Z,18.00
2022-09-03T08:19:57.270Z,18.06
2022-09-03T08:22:24.125Z,18.14
2022-09-03T08:24:55.890Z,18.24
2022-09-03T08:27:22.526Z,18.34
2022-09-03T08:29:49.300Z,18.46
2022-09-03T08:32:15.975Z,18.56
2022-09-03T08:34:44.101Z,18.63
2022-09-03T08:37:10.758Z,18.68
2022-09-03T08:39:37.568Z,18.72
2022-09-03T08:42:19.667Z,18.74
2022-09-03T08:44:49.160Z,18.73
2022-09-03T08:47:21.238Z,18.72
2022-09-03T08:49:54.619Z,18.76
2022-09-03T08:52:30.057Z,18.79
2022-09-03T08:55:08.839Z,18.89
2022-09-03T08:57:43.455Z,18.92
2022-09-03T09:00:11.198Z,18.94
2022-09-03T09:03:22.837Z,18.98
2022-09-03T09:06:00.389Z,19.05
2022-09-03T09:08:34.240Z,19.09
2022-09-03T09:11:14.147Z,19.12
2022-09-03T09:13:49.726Z,19.12
2022-09-03T09:16:21.778Z,19.17
2022-09-03T09:19:05.461Z,19.21
2022-09-03T09:21:39.904Z,19.29
2022-09-03T09:24:13.291Z,19.35
2022-09-03T09:26:41.512Z,19.40
2022-09-03T09:29:10.276Z,19.43
2022-09-03T09:31:38.208Z,19.47
2022-09-03T09:34:06.348Z,19.48
2022-09-03T09:36:42.388Z,19.51
2022-09-03T09:39:09.747Z,19.55
2022-09-03T09:41:36.471Z,19.62
2022-09-03T09:44:04.358Z,19.67
2022-09-03T09:46:36.045Z,19.75
2022-09-03T09:49:21.939Z,19.79
2022-09-03T09:52:00.817Z,19.84
2022-09-03T09:54:27.478Z,19.92
2022-09-03T09:56:59.980Z,19.97
2022-09-03T09:59:26.761Z,20.03
2022-09-03T10:02:06.725Z,20.09
2022-09-03T10:04:34.049Z,20.18
2022-09-03T10:07:05.782Z,20.26
2022-09-03T10:09:33.736Z,20.35
2022-09-03T10:12:09.468Z,20.42
2022-09-03T10:14:39.512Z,20.51
2022-09-03T10:17:14.199Z,20.59
2022-09-03T10:19:46.587Z,20.66
2022-09-03T10:22:20.469Z,20.74
2022-09-03T10:24:52.864Z,20.82
2022-09-03T10:27:19.903Z,20.91
2022-09-03T10:29:46.743Z,20.99
2022-09-03T10:32:37.826Z,21.08
2022-09-03T10:35:18.472Z,21.17
2022-09-03T10:37:52.632Z,21.29
2022-09-03T10:40:26.772Z,21.39
2022-09-03T10:43:06.331Z,21.45
2022-09-03T10:45:41.438Z,21.53
2022-09-03T10:48:37.135Z,21.67
2022-09-03T10:51:06.427Z,21.77
2022-09-03T10:53:47.594Z,21.69
2022-09-03T10:56:21.482Z,21.62
2022-09-03T10:59:04.834Z,21.55
2022-09-03T11:01:41.909Z,21.54
2022-09-03T11:04:21.717Z,21.57
2022-09-03T11:06:52.605Z,21.68
2022-09-03T11:09:26.035Z,21.77
2022-09-03T11:11:56.081Z,21.80
2022-09-03T11:14:31.872Z,21.87
2022-09-03T11:17:03.807Z,21.85
2022-09-03T11:19:36.335Z,21.82
2022-09-03T11:22:06.543Z,21.81
2022-09-03T11:24:38.659Z,21.81
2022-09-03T11:27:17.760Z,21.89
2022-09-03T11:29:52.116Z,21.94
2022-09-03T11:32:24.215Z,21.97
2022-09-03T11:34:52.435Z,21.99
2022-09-03T11:37:22.666Z,22.01
2022-09-03T11:40:05.945Z,22.12
2022-09-03T11:42:36.449Z,22.27
2022-09-03T11:45:34.171Z,22.35
2022-09-03T11:48:00.883Z,22.34
2022-09-03T11:50:29.983Z,22.33
2022-09-03T11:53:08.852Z,22.33
2022-09-03T11:55:52.717Z,22.30
2022-09-03T11:58:25.173Z,22.19
2022-09-03T12:00:51.902Z,22.13
2022-09-03T12:03:25.007Z,22.24
2022-09-03T12:06:11.872Z,22.36
2022-09-03T12:08:56.329Z,22.39
2022-09-03T12:11:40.396Z,22.42
2022-09-03T12:14:16.560Z,22.62
2022-09-03T12:17:07.853Z,22.77
2022-09-03T12:19:40.383Z,22.83
2022-09-03T12:22:07.573Z,22.90
2022-09-03T12:24:37.893Z,22.99
2022-09-03T12:27:09.325Z,22.95
2022-09-03T12:29:36.037Z,22.95
2022-09-03T12:32:08.690Z,23.11
2022-09-03T12:34:35.495Z,23.25
2022-09-03T12:37:02.377Z,23.21
2022-09-03T12:42:23.440Z,23.05
2022-09-03T12:44:50.156Z,22.97
2022-09-03T12:47:36.651Z,22.96
2022-09-03T12:50:07.867Z,23.03
2022-09-03T12:52:38.935Z,23.12
2022-09-03T12:55:15.378Z,23.09
2022-09-03T12:57:46.503Z,23.03
2022-09-03T13:00:16.770Z,22.95
2022-09-03T13:02:49.543Z,22.89
2022-09-03T13:05:20.883Z,22.79
2022-09-03T13:07:51.055Z,22.75
2022-09-03T13:10:26.370Z,22.73
2022-09-03T13:12:59.948Z,22.85
2022-09-03T13:15:27.269Z,23.06
2022-09-03T13:18:15.562Z,23.34
2022-09-03T13:20:52.411Z,23.69
2022-09-03T13:23:36.850Z,23.98
2022-09-03T13:26:18.264Z,24.20
2022-09-03T13:29:00.218Z,24.27
2022-09-03T13:31:32.394Z,24.22
2022-09-03T13:34:04.046Z,24.14
2022-09-03T13:36:36.721Z,24.04
2022-09-03T13:39:09.091Z,23.95
2022-09-03T13:41:39.701Z,23.84
2022-09-03T13:44:11.671Z,23.79
2022-09-03T13:46:45.421Z,23.83
2022-09-03T13:49:21.940Z,23.79
2022-09-03T13:51:55.645Z,23.73
2022-09-03T13:54:48.233Z,23.67
2022-09-03T13:57:25.607Z,23.66
2022-09-03T13:59:58.894Z,23.65
2022-09-03T14:02:42.466Z,23.65
2022-09-03T14:05:12.990Z,23.67
2022-09-03T14:07:52.271Z,23.80
2022-09-03T14:10:23.694Z,23.84
2022-09-03T14:13:02.143Z,23.82
2022-09-03T14:15:34.004Z,23.73
2022-09-03T14:18:13.430Z,23.64
2022-09-03T14:20:47.595Z,23.55
2022-09-03T14:23:31.226Z,23.60
2022-09-03T14:25:59.536Z,23.69
2022-09-03T14:28:31.290Z,23.84
2022-09-03T14:31:09.172Z,23.90
2022-09-03T14:33:44.420Z,23.98
2022-09-03T14:36:22.984Z,24.05
2022-09-03T14:39:18.236Z,24.08
2022-09-03T14:42:17.862Z,24.02
2022-09-03T14:45:20.216Z,24.00
2022-09-03T14:48:05.033Z,23.93
2022-09-03T14:50:48.548Z,23.86
2022-09-03T14:53:28.444Z,23.83
2022-09-03T14:56:13.087Z,23.79
2022-09-03T14:58:55.410Z,23.78
2022-09-03T15:01:29.117Z,23.80
2022-09-03T15:04:27.085Z,23.75
2022-09-03T15:07:12.393Z,23.70
2022-09-03T15:09:46.223Z,23.67
2022-09-03T15:12:21.152Z,23.60
2022-09-03T15:14:54.945Z,23.51
2022-09-03T15:17:36.371Z,23.42
2022-09-03T15:20:20.991Z,23.32
2022-09-03T15:23:10.058Z,23.30
2022-09-03T15:25:50.076Z,23.29
2022-09-03T15:28:24.022Z,23.30
2022-09-03T15:31:01.301Z,23.30
2022-09-03T15:33:33.346Z,23.29
2022-09-03T15:36:13.628Z,23.29
2022-09-03T15:38:46.957Z,23.30
2022-09-03T15:41:21.430Z,23.30
2022-09-03T15:43:50.991Z,23.35
2022-09-03T15:46:37.930Z,23.34
2022-09-03T15:49:16.168Z,23.36
2022-09-03T15:51:58.956Z,23.33
2022-09-03T15:54:36.736Z,23.28
2022-09-03T15:57:09.876Z,23.20
2022-09-03T15:59:41.179Z,23.07
2022-09-03T16:02:13.264Z,22.99
2022-09-03T16:04:56.181Z,22.95
2022-09-03T16:07:30.506Z,22.93
2022-09-03T16:10:24.174Z,22.89
2022-09-03T16:13:01.206Z,22.84
2022-09-03T16:15:30.339Z,22.80
2022-09-03T16:18:02.663Z,22.76
2022-09-03T16:20:36.232Z,22.68
2022-09-03T16:23:10.450Z,22.64
2022-09-03T16:25:48.930Z,22.61
2022-09-03T16:28:19.787Z,22.61
2022-09-03T16:31:00.446Z,22.55
2022-09-03T16:33:38.505Z,22.49
2022-09-03T16:36:18.776Z,22.47
2022-09-03T16:38:54.618Z,22.43
2022-09-03T16:41:30.938Z,22.42
2022-09-03T16:44:08.179Z,22.40
2022-09-03T16:46:43.609Z,22.38
2022-09-03T16:49:28.899Z,22.39
2022-09-03T16:52:05.090Z,22.38
2022-09-03T16:54:55.744Z,22.36
2022-09-03T16:57:34.214Z,22.31
2022-09-03T17:00:06.594Z,22.23
2022-09-03T17:02:58.185Z,22.16
2022-09-03T17:05:55.354Z,22.05
2022-09-03T17:08:33.006Z,22.01
2022-09-03T17:11:11.925Z,21.96
2022-09-03T17:13:54.669Z,21.90
2022-09-03T17:16:38.188Z,21.83
2022-09-03T17:19:15.566Z,21.75
2022-09-03T17:21:50.431Z,21.69
2022-09-03T17:24:28.719Z,21.61
2022-09-03T17:27:12.453Z,21.49
2022-09-03T17:29:51.822Z,21.41
2022-09-03T17:32:31.051Z,21.36
2022-09-03T17:35:08.869Z,21.29
2022-09-03T17:37:50.972Z,21.21
2022-09-03T17:40:28.541Z,21.15
2022-09-03T17:43:01.946Z,21.09
2022-09-03T17:45:37.517Z,21.04
2022-09-03T17:48:25.413Z,21.00
2022-09-03T17:50:57.081Z,20.94
2022-09-03T17:53:31.626Z,20.87
2022-09-03T17:56:02.541Z,20.79
2022-09-03T17:58:35.380Z,20.73
2022-09-03T18:01:15.350Z,20.66
2022-09-03T18:03:48.288Z,20.57
2022-09-03T18:06:24.864Z,20.47
2022-09-03T18:08:57.806Z,20.38
2022-09-03T18:11:34.061Z,20.29
2022-09-03T18:14:15.821Z,20.20
2022-09-03T18:16:49.374Z,20.13
2022-09-03T18:19:22.773Z,20.04
2022-09-03T18:21:50.236Z,20.00
2022-09-03T18:24:28.886Z,19.97
2022-09-03T18:27:01.513Z,19.91
2022-09-03T18:29:36.252Z,19.84
2022-09-03T18:32:03.042Z,19.80
2022-09-03T18:34:31.958Z,19.74
2022-09-03T18:36:59.384Z,19.71
2022-09-03T18:39:27.686Z,19.67
2022-09-03T18:42:05.854Z,19.64
2022-09-03T18:44:48.158Z,19.61
2022-09-03T18:50:26.326Z,19.49
2022-09-03T18:52:59.059Z,19.46
2022-09-03T18:55:37.936Z,19.43
2022-09-03T18:58:17.237Z,19.38
2022-09-03T19:00:57.281Z,19.35
2022-09-03T19:03:38.651Z,19.31
2022-09-03T19:06:15.355Z,19.28
2022-09-03T19:08:49.229Z,19.24
2022-09-03T19:11:28.091Z,19.21
2022-09-03T19:14:04.692Z,19.18
2022-09-03T19:16:43.631Z,19.15
2022-09-03T19:19:26.903Z,19.11
2022-09-03T19:22:00.032Z,19.08
2022-09-03T19:24:30.316Z,19.06
2022-09-03T19:27:23.537Z,19.02
2022-09-03T19:30:03.261Z,18.98
2022-09-03T19:32:38.844Z,18.95
2022-09-03T19:35:16.451Z,18.90
2022-09-03T19:37:54.881Z,18.88
2022-09-03T19:40:39.634Z,18.85
2022-09-03T19:43:16.318Z,18.81
2022-09-03T19:45:54.655Z,18.78
2022-09-03T19:48:36.459Z,18.75
2022-09-03T19:51:12.199Z,18.73
2022-09-03T19:53:38.943Z,18.70
2022-09-03T19:56:11.831Z,18.68
2022-09-03T19:58:44.273Z,18.66
2022-09-03T20:01:12.412Z,18.65
2022-09-03T20:03:42.230Z,18.63
2022-09-03T20:06:11.453Z,18.62
2022-09-03T20:08:38.888Z,18.59
2022-09-03T20:11:09.552Z,18.57
2022-09-03T20:13:39.781Z,18.56
2022-09-03T20:16:14.652Z,18.54
2022-09-03T20:18:51.000Z,18.52
2022-09-03T20:21:24.982Z,18.50
2022-09-03T20:23:59.871Z,18.50
2022-09-03T20:26:42.344Z,18.49
2022-09-03T20:29:25.346Z,18.48
2022-09-03T20:32:00.029Z,18.48
2022-09-03T20:34:38.530Z,18.47
2022-09-03T20:37:18.706Z,18.46
2022-09-03T20:39:57.533Z,18.45
2022-09-03T20:42:40.406Z,18.42
2022-09-03T20:45:15.038Z,18.41
2022-09-03T20:47:56.722Z,18.41
2022-09-03T20:50:36.332Z,18.39
2022-09-03T20:53:14.149Z,18.38
2022-09-03T20:55:42.811Z,18.36
2022-09-03T20:58:19.242Z,18.34
2022-09-03T21:00:55.524Z,18.33
2022-09-03T21:03:28.995Z,18.32
2022-09-03T21:06:02.017Z,18.29
2022-09-03T21:08:51.325Z,18.28
2022-09-03T21:11:30.248Z,18.25
2022-09-03T21:14:06.732Z,18.24
2022-09-03T21:16:41.449Z,18.21
2022-09-03T21:19:11.216Z,18.20
2022-09-03T21:21:51.576Z,18.19
2022-09-03T21:24:21.455Z,18.17
2022-09-03T21:26:53.445Z,18.15
2022-09-03T21:29:25.620Z,18.14
2022-09-03T21:31:59.155Z,18.15
2022-09-03T21:34:29.398Z,18.14
2022-09-03T21:36:59.731Z,18.15
2022-09-03T21:39:30.837Z,18.13
2022-09-03T21:42:03.246Z,18.13
2022-09-03T21:44:51.349Z,18.13
2022-09-03T21:47:19.831Z,18.11
2022-09-03T21:49:57.147Z,18.11
2022-09-03T21:52:33.904Z,18.08
2022-09-03T21:55:16.997Z,18.09
2022-09-03T21:57:53.853Z,18.08
2022-09-03T22:00:26.726Z,18.05
2022-09-03T22:02:53.557Z,18.02
2022-09-03T22:05:20.193Z,18.01
2022-09-03T22:08:12.217Z,17.99
2022-09-03T22:10:49.084Z,17.98
2022-09-03T22:13:23.502Z,17.96
2022-09-03T22:15:50.548Z,17.93
2022-09-03T22:18:21.957Z,17.91
2022-09-03T22:20:48.606Z,17.90
2022-09-03T22:23:21.578Z,17.89
2022-09-03T22:25:57.408Z,17.89
2022-09-03T22:28:30.254Z,17.90
2022-09-03T22:31:03.807Z,17.88
2022-09-03T22:33:37.843Z,17.86
2022-09-03T22:36:13.517Z,17.85
2022-09-03T22:39:02.620Z,17.83
2022-09-03T22:41:51.358Z,17.82
2022-09-03T22:44:32.643Z,17.79
2022-09-03T22:47:11.053Z,17.78
2022-09-03T22:49:44.864Z,17.75
2022-09-03T22:52:28.685Z,17.73
2022-09-03T22:55:05.665Z,17.71
2022-09-03T22:57:40.036Z,17.70
2022-09-03T23:00:09.549Z,17.68
2022-09-03T23:02:38.199Z,17.66
2022-09-03T23:05:08.410Z,17.65
2022-09-03T23:07:48.387Z,17.63
2022-09-03T23:10:24.445Z,17.61
2022-09-03T23:13:03.267Z,17.60
2022-09-03T23:15:32.576Z,17.58
2022-09-03T23:18:05.608Z,17.57
2022-09-03T23:20:36.470Z,17.55
2022-09-03T23:23:16.067Z,17.55
2022-09-03T23:25:49.503Z,17.52
2022-09-03T23:28:21.860Z,17.49
2022-09-03T23:30:48.518Z,17.47
2022-09-03T23:33:15.273Z,17.45
2022-09-03T23:35:50.544Z,17.42
2022-09-03T23:38:25.731Z,17.40
2022-09-03T23:40:57.852Z,17.39
2022-09-03T23:43:58.488Z,17.37
2022-09-03T23:46:31.518Z,17.35
2022-09-03T23:49:13.974Z,17.34
2022-09-03T23:51:56.747Z,17.32
2022-09-03T23:54:29.719Z,17.29
2022-09-03T23:57:05.959Z,17.27
2022-09-03T23:59:47.109Z,17.25
